sensor_id;sensor_type;location;lat;lon;timestamp;P1;durP1;ratioP1;P2;durP2;ratioP2
40931;SDS011;36257;46.052;12.540;2023-01-31T00:01:04;36.77;;;20.73;;
40931;SDS011;36257;46.052;12.540;2023-01-31T00:03:38;26.17;;;17.53;;
40931;SDS011;36257;46.052;12.540;2023-01-31T00:06:23;28.87;;;19.57;;
40931;SDS011;36257;46.052;12.540;2023-01-31T00:09:17;31.73;;;19.53;;
40931;SDS011;36257;46.052;12.540;2023-01-31T00:11:43;38.30;;;22.40;;
40931;SDS011;36257;46.052;12.540;2023-01-31T00:14:09;36.53;;;21.37;;
40931;SDS011;36257;46.052;12.540;2023-01-31T00:16:41;40.40;;;22.87;;
40931;SDS011;36257;46.052;12.540;2023-01-31T00:19:07;39.27;;;25.47;;
40931;SDS011;36257;46.052;12.540;2023-01-31T00:21:33;50.73;;;26.97;;
40931;SDS011;36257;46.052;12.540;2023-01-31T00:23:58;51.87;;;30.40;;
40931;SDS011;36257;46.052;12.540;2023-01-31T00:26:26;51.90;;;30.10;;
40931;SDS011;36257;46.052;12.540;2023-01-31T00:28:54;42.93;;;25.80;;
40931;SDS011;36257;46.052;12.540;2023-01-31T00:31:21;40.65;;;24.27;;
40931;SDS011;36257;46.052;12.540;2023-01-31T00:33:49;37.10;;;23.70;;
40931;SDS011;36257;46.052;12.540;2023-01-31T00:36:17;34.13;;;20.40;;
40931;SDS011;36257;46.052;12.540;2023-01-31T00:38:47;30.27;;;20.63;;
40931;SDS011;36257;46.052;12.540;2023-01-31T00:41:14;27.87;;;17.97;;
40931;SDS011;36257;46.052;12.540;2023-01-31T00:43:39;22.20;;;16.20;;
40931;SDS011;36257;46.052;12.540;2023-01-31T00:46:05;27.10;;;17.20;;
40931;SDS011;36257;46.052;12.540;2023-01-31T00:48:31;47.53;;;24.00;;
40931;SDS011;36257;46.052;12.540;2023-01-31T00:50:57;38.77;;;19.00;;
40931;SDS011;36257;46.052;12.540;2023-01-31T00:53:23;175.43;;;49.20;;
40931;SDS011;36257;46.052;12.540;2023-01-31T00:55:50;70.67;;;28.87;;
40931;SDS011;36257;46.052;12.540;2023-01-31T01:00:43;30.07;;;18.17;;
40931;SDS011;36257;46.052;12.540;2023-01-31T01:03:08;33.87;;;20.63;;
40931;SDS011;36257;46.052;12.540;2023-01-31T01:05:34;22.40;;;17.00;;
40931;SDS011;36257;46.052;12.540;2023-01-31T01:08:00;21.80;;;15.87;;
40931;SDS011;36257;46.052;12.540;2023-01-31T01:10:25;26.93;;;16.30;;
40931;SDS011;36257;46.052;12.540;2023-01-31T01:12:51;26.87;;;17.50;;
40931;SDS011;36257;46.052;12.540;2023-01-31T01:15:17;26.27;;;17.87;;
40931;SDS011;36257;46.052;12.540;2023-01-31T01:17:43;30.30;;;20.30;;
40931;SDS011;36257;46.052;12.540;2023-01-31T01:20:09;38.67;;;21.13;;
40931;SDS011;36257;46.052;12.540;2023-01-31T01:22:35;44.00;;;25.67;;
40931;SDS011;36257;46.052;12.540;2023-01-31T01:25:01;48.43;;;29.77;;
40931;SDS011;36257;46.052;12.540;2023-01-31T01:27:27;44.63;;;28.40;;
40931;SDS011;36257;46.052;12.540;2023-01-31T01:29:52;39.77;;;23.03;;
40931;SDS011;36257;46.052;12.540;2023-01-31T01:32:18;31.73;;;21.83;;
40931;SDS011;36257;46.052;12.540;2023-01-31T01:34:44;28.93;;;18.70;;
40931;SDS011;36257;46.052;12.540;2023-01-31T01:37:09;21.17;;;13.53;;
40931;SDS011;36257;46.052;12.540;2023-01-31T01:39:44;18.73;;;12.60;;
40931;SDS011;36257;46.052;12.540;2023-01-31T01:42:18;17.98;;;12.02;;
40931;SDS011;36257;46.052;12.540;2023-01-31T01:47:32;18.40;;;12.77;;
40931;SDS011;36257;46.052;12.540;2023-01-31T01:53:08;19.35;;;11.93;;
40931;SDS011;36257;46.052;12.540;2023-01-31T01:58:12;13.83;;;11.10;;
40931;SDS011;36257;46.052;12.540;2023-01-31T02:00:41;13.23;;;9.87;;
40931;SDS011;36257;46.052;12.540;2023-01-31T02:03:09;12.20;;;9.70;;
40931;SDS011;36257;46.052;12.540;2023-01-31T02:05:43;11.93;;;8.60;;
40931;SDS011;36257;46.052;12.540;2023-01-31T02:08:16;12.23;;;9.77;;
40931;SDS011;36257;46.052;12.540;2023-01-31T02:10:48;11.90;;;9.70;;
40931;SDS011;36257;46.052;12.540;2023-01-31T02:13:26;14.50;;;9.17;;
40931;SDS011;36257;46.052;12.540;2023-01-31T02:15:52;9.93;;;8.73;;
40931;SDS011;36257;46.052;12.540;2023-01-31T02:18:19;11.23;;;8.80;;
40931;SDS011;36257;46.052;12.540;2023-01-31T02:21:01;12.55;;;10.05;;
40931;SDS011;36257;46.052;12.540;2023-01-31T02:35:04;14.10;;;9.27;;
40931;SDS011;36257;46.052;12.540;2023-01-31T02:40:43;10.63;;;9.60;;
40931;SDS011;36257;46.052;12.540;2023-01-31T02:43:11;14.13;;;9.10;;
40931;SDS011;36257;46.052;12.540;2023-01-31T02:51:10;10.77;;;8.80;;
40931;SDS011;36257;46.052;12.540;2023-01-31T02:53:39;8.70;;;7.75;;
40931;SDS011;36257;46.052;12.540;2023-01-31T02:56:17;17.17;;;11.50;;
40931;SDS011;36257;46.052;12.540;2023-01-31T03:01:23;15.00;;;9.73;;
40931;SDS011;36257;46.052;12.540;2023-01-31T03:03:57;9.50;;;7.63;;
40931;SDS011;36257;46.052;12.540;2023-01-31T03:15:02;11.70;;;9.50;;
40931;SDS011;36257;46.052;12.540;2023-01-31T03:20:40;11.67;;;9.07;;
40931;SDS011;36257;46.052;12.540;2023-01-31T03:23:32;11.77;;;8.37;;
40931;SDS011;36257;46.052;12.540;2023-01-31T03:25:59;14.33;;;10.27;;
40931;SDS011;36257;46.052;12.540;2023-01-31T03:28:30;12.27;;;9.07;;
40931;SDS011;36257;46.052;12.540;2023-01-31T03:30:59;11.20;;;8.30;;
40931;SDS011;36257;46.052;12.540;2023-01-31T03:33:38;14.40;;;11.93;;
40931;SDS011;36257;46.052;12.540;2023-01-31T03:41:29;20.33;;;13.40;;
40931;SDS011;36257;46.052;12.540;2023-01-31T03:44:05;15.93;;;10.47;;
40931;SDS011;36257;46.052;12.540;2023-01-31T03:46:51;12.27;;;9.20;;
40931;SDS011;36257;46.052;12.540;2023-01-31T03:49:23;15.50;;;11.47;;
40931;SDS011;36257;46.052;12.540;2023-01-31T03:51:53;16.17;;;11.30;;
40931;SDS011;36257;46.052;12.540;2023-01-31T03:54:27;15.70;;;11.13;;
40931;SDS011;36257;46.052;12.540;2023-01-31T03:56:58;16.03;;;10.67;;
40931;SDS011;36257;46.052;12.540;2023-01-31T03:59:32;20.90;;;13.43;;
40931;SDS011;36257;46.052;12.540;2023-01-31T04:02:01;16.30;;;11.60;;
40931;SDS011;36257;46.052;12.540;2023-01-31T04:04:35;15.53;;;10.73;;
40931;SDS011;36257;46.052;12.540;2023-01-31T04:07:04;16.60;;;12.00;;
40931;SDS011;36257;46.052;12.540;2023-01-31T04:09:30;18.07;;;13.37;;
40931;SDS011;36257;46.052;12.540;2023-01-31T04:11:58;16.13;;;11.80;;
40931;SDS011;36257;46.052;12.540;2023-01-31T04:14:25;18.97;;;12.13;;
40931;SDS011;36257;46.052;12.540;2023-01-31T04:16:51;17.00;;;11.07;;
40931;SDS011;36257;46.052;12.540;2023-01-31T04:19:16;13.57;;;10.10;;
40931;SDS011;36257;46.052;12.540;2023-01-31T04:21:42;14.83;;;10.50;;
40931;SDS011;36257;46.052;12.540;2023-01-31T04:24:08;16.47;;;12.20;;
40931;SDS011;36257;46.052;12.540;2023-01-31T04:26:34;15.30;;;11.30;;
40931;SDS011;36257;46.052;12.540;2023-01-31T04:29:00;13.30;;;8.43;;
40931;SDS011;36257;46.052;12.540;2023-01-31T04:31:26;12.03;;;8.57;;
40931;SDS011;36257;46.052;12.540;2023-01-31T04:33:52;13.60;;;10.00;;
40931;SDS011;36257;46.052;12.540;2023-01-31T04:36:18;14.57;;;10.07;;
40931;SDS011;36257;46.052;12.540;2023-01-31T04:38:43;10.77;;;8.57;;
40931;SDS011;36257;46.052;12.540;2023-01-31T04:41:09;15.30;;;10.97;;
40931;SDS011;36257;46.052;12.540;2023-01-31T04:43:35;17.53;;;10.57;;
40931;SDS011;36257;46.052;12.540;2023-01-31T04:46:00;16.20;;;10.60;;
40931;SDS011;36257;46.052;12.540;2023-01-31T04:48:26;15.30;;;11.30;;
40931;SDS011;36257;46.052;12.540;2023-01-31T04:50:52;16.80;;;11.40;;
40931;SDS011;36257;46.052;12.540;2023-01-31T04:53:17;14.60;;;10.97;;
40931;SDS011;36257;46.052;12.540;2023-01-31T04:55:43;16.27;;;11.00;;
40931;SDS011;36257;46.052;12.540;2023-01-31T04:58:08;14.97;;;10.67;;
40931;SDS011;36257;46.052;12.540;2023-01-31T05:00:34;15.90;;;11.37;;
40931;SDS011;36257;46.052;12.540;2023-01-31T05:03:00;13.67;;;10.60;;
40931;SDS011;36257;46.052;12.540;2023-01-31T05:05:26;12.83;;;9.93;;
40931;SDS011;36257;46.052;12.540;2023-01-31T05:07:51;15.67;;;10.43;;
40931;SDS011;36257;46.052;12.540;2023-01-31T05:10:17;14.37;;;9.67;;
40931;SDS011;36257;46.052;12.540;2023-01-31T05:12:43;17.67;;;11.07;;
40931;SDS011;36257;46.052;12.540;2023-01-31T05:15:09;14.30;;;11.03;;
40931;SDS011;36257;46.052;12.540;2023-01-31T05:17:36;15.68;;;10.65;;
40931;SDS011;36257;46.052;12.540;2023-01-31T05:20:01;13.70;;;10.90;;
40931;SDS011;36257;46.052;12.540;2023-01-31T05:22:28;17.43;;;12.63;;
40931;SDS011;36257;46.052;12.540;2023-01-31T05:24:54;16.33;;;10.63;;
40931;SDS011;36257;46.052;12.540;2023-01-31T05:27:19;17.20;;;12.47;;
40931;SDS011;36257;46.052;12.540;2023-01-31T05:29:45;14.43;;;11.20;;
40931;SDS011;36257;46.052;12.540;2023-01-31T05:32:11;12.77;;;10.17;;
40931;SDS011;36257;46.052;12.540;2023-01-31T05:34:38;13.13;;;9.30;;
40931;SDS011;36257;46.052;12.540;2023-01-31T05:37:04;9.03;;;8.13;;
40931;SDS011;36257;46.052;12.540;2023-01-31T05:39:30;8.57;;;7.77;;
40931;SDS011;36257;46.052;12.540;2023-01-31T05:41:56;6.77;;;6.03;;
40931;SDS011;36257;46.052;12.540;2023-01-31T05:44:22;8.53;;;7.03;;
40931;SDS011;36257;46.052;12.540;2023-01-31T05:46:48;7.53;;;6.23;;
40931;SDS011;36257;46.052;12.540;2023-01-31T05:49:14;7.20;;;6.17;;
40931;SDS011;36257;46.052;12.540;2023-01-31T05:51:40;8.40;;;7.60;;
40931;SDS011;36257;46.052;12.540;2023-01-31T05:54:06;10.47;;;8.37;;
40931;SDS011;36257;46.052;12.540;2023-01-31T05:56:32;13.17;;;9.30;;
40931;SDS011;36257;46.052;12.540;2023-01-31T05:58:57;30.50;;;16.17;;
40931;SDS011;36257;46.052;12.540;2023-01-31T06:01:24;36.23;;;20.47;;
40931;SDS011;36257;46.052;12.540;2023-01-31T06:06:16;41.63;;;23.30;;
40931;SDS011;36257;46.052;12.540;2023-01-31T06:08:42;20.90;;;13.87;;
40931;SDS011;36257;46.052;12.540;2023-01-31T06:11:09;34.93;;;23.67;;
40931;SDS011;36257;46.052;12.540;2023-01-31T06:13:36;44.75;;;27.05;;
40931;SDS011;36257;46.052;12.540;2023-01-31T06:16:02;42.05;;;30.27;;
40931;SDS011;36257;46.052;12.540;2023-01-31T06:18:29;44.20;;;27.27;;
40931;SDS011;36257;46.052;12.540;2023-01-31T06:20:55;38.97;;;24.57;;
40931;SDS011;36257;46.052;12.540;2023-01-31T06:23:20;49.80;;;26.30;;
40931;SDS011;36257;46.052;12.540;2023-01-31T06:25:49;38.80;;;21.40;;
40931;SDS011;36257;46.052;12.540;2023-01-31T06:28:16;40.50;;;24.23;;
40931;SDS011;36257;46.052;12.540;2023-01-31T06:30:42;41.70;;;23.30;;
40931;SDS011;36257;46.052;12.540;2023-01-31T06:33:08;43.97;;;25.20;;
40931;SDS011;36257;46.052;12.540;2023-01-31T06:35:34;49.17;;;27.00;;
40931;SDS011;36257;46.052;12.540;2023-01-31T06:38:00;50.10;;;28.23;;
40931;SDS011;36257;46.052;12.540;2023-01-31T06:40:26;47.37;;;27.20;;
40931;SDS011;36257;46.052;12.540;2023-01-31T06:42:52;45.30;;;27.13;;
40931;SDS011;36257;46.052;12.540;2023-01-31T06:45:17;43.40;;;27.07;;
40931;SDS011;36257;46.052;12.540;2023-01-31T06:47:43;40.70;;;24.77;;
40931;SDS011;36257;46.052;12.540;2023-01-31T06:50:10;40.53;;;22.87;;
40931;SDS011;36257;46.052;12.540;2023-01-31T06:52:36;35.87;;;22.50;;
40931;SDS011;36257;46.052;12.540;2023-01-31T06:55:02;29.43;;;19.27;;
40931;SDS011;36257;46.052;12.540;2023-01-31T06:57:28;34.73;;;17.73;;
40931;SDS011;36257;46.052;12.540;2023-01-31T06:59:53;24.77;;;17.43;;
40931;SDS011;36257;46.052;12.540;2023-01-31T07:02:19;25.27;;;16.87;;
40931;SDS011;36257;46.052;12.540;2023-01-31T07:04:45;24.70;;;16.63;;
40931;SDS011;36257;46.052;12.540;2023-01-31T07:07:10;28.20;;;17.63;;
40931;SDS011;36257;46.052;12.540;2023-01-31T07:09:36;29.10;;;20.27;;
40931;SDS011;36257;46.052;12.540;2023-01-31T07:12:01;33.07;;;21.27;;
40931;SDS011;36257;46.052;12.540;2023-01-31T07:14:27;29.73;;;19.20;;
40931;SDS011;36257;46.052;12.540;2023-01-31T07:16:53;33.73;;;21.87;;
40931;SDS011;36257;46.052;12.540;2023-01-31T07:19:19;36.40;;;23.37;;
40931;SDS011;36257;46.052;12.540;2023-01-31T07:21:44;38.83;;;23.77;;
40931;SDS011;36257;46.052;12.540;2023-01-31T07:24:13;39.07;;;24.27;;
40931;SDS011;36257;46.052;12.540;2023-01-31T07:26:39;37.00;;;23.60;;
40931;SDS011;36257;46.052;12.540;2023-01-31T07:29:05;39.33;;;24.07;;
40931;SDS011;36257;46.052;12.540;2023-01-31T07:31:31;40.27;;;24.67;;
40931;SDS011;36257;46.052;12.540;2023-01-31T07:33:56;36.67;;;23.60;;
40931;SDS011;36257;46.052;12.540;2023-01-31T07:36:23;37.90;;;22.67;;
40931;SDS011;36257;46.052;12.540;2023-01-31T07:38:54;29.45;;;17.77;;
40931;SDS011;36257;46.052;12.540;2023-01-31T07:41:21;36.60;;;23.93;;
40931;SDS011;36257;46.052;12.540;2023-01-31T07:43:50;39.07;;;24.37;;
40931;SDS011;36257;46.052;12.540;2023-01-31T07:46:16;40.23;;;24.67;;
40931;SDS011;36257;46.052;12.540;2023-01-31T07:48:41;37.50;;;23.20;;
40931;SDS011;36257;46.052;12.540;2023-01-31T07:51:07;39.07;;;24.07;;
40931;SDS011;36257;46.052;12.540;2023-01-31T07:53:34;36.37;;;22.80;;
40931;SDS011;36257;46.052;12.540;2023-01-31T07:56:06;39.23;;;24.60;;
40931;SDS011;36257;46.052;12.540;2023-01-31T07:58:39;41.67;;;26.17;;
40931;SDS011;36257;46.052;12.540;2023-01-31T08:01:08;47.20;;;27.27;;
40931;SDS011;36257;46.052;12.540;2023-01-31T08:03:56;42.17;;;27.13;;
40931;SDS011;36257;46.052;12.540;2023-01-31T08:06:22;49.67;;;29.63;;
40931;SDS011;36257;46.052;12.540;2023-01-31T08:08:48;52.47;;;30.77;;
40931;SDS011;36257;46.052;12.540;2023-01-31T08:11:13;48.93;;;29.67;;
40931;SDS011;36257;46.052;12.540;2023-01-31T08:13:39;42.27;;;26.73;;
40931;SDS011;36257;46.052;12.540;2023-01-31T08:16:05;37.90;;;24.93;;
40931;SDS011;36257;46.052;12.540;2023-01-31T08:18:33;39.13;;;23.40;;
40931;SDS011;36257;46.052;12.540;2023-01-31T08:20:59;39.13;;;23.10;;
40931;SDS011;36257;46.052;12.540;2023-01-31T08:23:25;33.93;;;21.73;;
40931;SDS011;36257;46.052;12.540;2023-01-31T08:25:52;35.85;;;22.02;;
40931;SDS011;36257;46.052;12.540;2023-01-31T08:28:24;35.77;;;22.43;;
40931;SDS011;36257;46.052;12.540;2023-01-31T08:30:50;36.00;;;21.00;;
40931;SDS011;36257;46.052;12.540;2023-01-31T08:33:16;31.27;;;20.47;;
40931;SDS011;36257;46.052;12.540;2023-01-31T08:35:41;32.20;;;19.33;;
40931;SDS011;36257;46.052;12.540;2023-01-31T08:38:07;36.43;;;22.00;;
40931;SDS011;36257;46.052;12.540;2023-01-31T08:40:33;37.00;;;22.83;;
40931;SDS011;36257;46.052;12.540;2023-01-31T08:42:59;38.63;;;23.93;;
40931;SDS011;36257;46.052;12.540;2023-01-31T08:45:25;37.80;;;24.80;;
40931;SDS011;36257;46.052;12.540;2023-01-31T08:47:52;48.22;;;28.60;;
40931;SDS011;36257;46.052;12.540;2023-01-31T08:50:19;46.20;;;29.50;;
40931;SDS011;36257;46.052;12.540;2023-01-31T08:52:45;48.43;;;30.40;;
40931;SDS011;36257;46.052;12.540;2023-01-31T08:55:10;52.97;;;29.90;;
40931;SDS011;36257;46.052;12.540;2023-01-31T08:57:38;51.35;;;30.98;;
40931;SDS011;36257;46.052;12.540;2023-01-31T09:00:05;47.65;;;31.00;;
40931;SDS011;36257;46.052;12.540;2023-01-31T09:02:32;58.35;;;34.90;;
40931;SDS011;36257;46.052;12.540;2023-01-31T09:04:57;57.13;;;36.38;;
40931;SDS011;36257;46.052;12.540;2023-01-31T09:07:23;57.17;;;35.78;;
40931;SDS011;36257;46.052;12.540;2023-01-31T09:09:48;63.90;;;39.53;;
40931;SDS011;36257;46.052;12.540;2023-01-31T09:12:14;61.05;;;38.90;;
40931;SDS011;36257;46.052;12.540;2023-01-31T09:14:39;60.92;;;37.50;;
40931;SDS011;36257;46.052;12.540;2023-01-31T09:17:05;60.45;;;38.08;;
40931;SDS011;36257;46.052;12.540;2023-01-31T09:19:32;63.15;;;39.83;;
40931;SDS011;36257;46.052;12.540;2023-01-31T09:21:57;59.55;;;37.13;;
40931;SDS011;36257;46.052;12.540;2023-01-31T09:24:23;55.45;;;35.17;;
40931;SDS011;36257;46.052;12.540;2023-01-31T09:26:48;53.35;;;35.03;;
40931;SDS011;36257;46.052;12.540;2023-01-31T09:29:14;52.78;;;33.00;;
40931;SDS011;36257;46.052;12.540;2023-01-31T09:31:40;49.03;;;32.05;;
40931;SDS011;36257;46.052;12.540;2023-01-31T09:34:05;55.33;;;32.08;;
40931;SDS011;36257;46.052;12.540;2023-01-31T09:36:31;58.05;;;37.22;;
40931;SDS011;36257;46.052;12.540;2023-01-31T09:38:56;56.38;;;35.30;;
40931;SDS011;36257;46.052;12.540;2023-01-31T09:43:52;58.33;;;37.90;;
40931;SDS011;36257;46.052;12.540;2023-01-31T09:46:22;60.55;;;38.10;;
40931;SDS011;36257;46.052;12.540;2023-01-31T09:48:51;60.70;;;37.42;;
40931;SDS011;36257;46.052;12.540;2023-01-31T09:51:21;54.97;;;37.47;;
40931;SDS011;36257;46.052;12.540;2023-01-31T09:53:48;59.70;;;37.67;;
40931;SDS011;36257;46.052;12.540;2023-01-31T09:56:26;61.90;;;36.50;;
40931;SDS011;36257;46.052;12.540;2023-01-31T09:59:04;53.53;;;35.20;;
40931;SDS011;36257;46.052;12.540;2023-01-31T10:01:44;55.45;;;35.08;;
40931;SDS011;36257;46.052;12.540;2023-01-31T10:04:33;58.35;;;35.47;;
40931;SDS011;36257;46.052;12.540;2023-01-31T10:08:05;49.70;;;33.25;;
40931;SDS011;36257;46.052;12.540;2023-01-31T10:13:02;58.75;;;37.55;;
40931;SDS011;36257;46.052;12.540;2023-01-31T10:15:59;57.63;;;38.95;;
40931;SDS011;36257;46.052;12.540;2023-01-31T10:18:34;59.85;;;38.13;;
40931;SDS011;36257;46.052;12.540;2023-01-31T10:21:11;57.58;;;39.05;;
40931;SDS011;36257;46.052;12.540;2023-01-31T10:23:42;60.28;;;37.97;;
40931;SDS011;36257;46.052;12.540;2023-01-31T10:26:17;57.65;;;37.88;;
40931;SDS011;36257;46.052;12.540;2023-01-31T10:28:56;53.88;;;36.53;;
40931;SDS011;36257;46.052;12.540;2023-01-31T10:31:30;51.95;;;34.08;;
40931;SDS011;36257;46.052;12.540;2023-01-31T10:39:21;55.83;;;35.28;;
40931;SDS011;36257;46.052;12.540;2023-01-31T10:44:54;56.22;;;38.00;;
40931;SDS011;36257;46.052;12.540;2023-01-31T10:47:30;56.38;;;37.70;;
40931;SDS011;36257;46.052;12.540;2023-01-31T10:50:00;59.78;;;39.97;;
40931;SDS011;36257;46.052;12.540;2023-01-31T10:52:45;61.90;;;41.03;;
40931;SDS011;36257;46.052;12.540;2023-01-31T10:55:30;65.88;;;41.58;;
40931;SDS011;36257;46.052;12.540;2023-01-31T10:58:20;61.53;;;40.80;;
40931;SDS011;36257;46.052;12.540;2023-01-31T11:00:47;53.42;;;37.72;;
40931;SDS011;36257;46.052;12.540;2023-01-31T11:03:13;53.58;;;37.47;;
40931;SDS011;36257;46.052;12.540;2023-01-31T11:05:45;59.75;;;39.15;;
40931;SDS011;36257;46.052;12.540;2023-01-31T11:08:46;55.95;;;38.25;;
40931;SDS011;36257;46.052;12.540;2023-01-31T11:11:09;54.03;;;38.25;;
40931;SDS011;36257;46.052;12.540;2023-01-31T11:13:42;62.92;;;38.83;;
40931;SDS011;36257;46.052;12.540;2023-01-31T11:16:19;59.22;;;39.33;;
40931;SDS011;36257;46.052;12.540;2023-01-31T11:18:48;60.92;;;40.00;;
40931;SDS011;36257;46.052;12.540;2023-01-31T11:21:22;57.25;;;37.15;;
40931;SDS011;36257;46.052;12.540;2023-01-31T11:23:55;53.72;;;37.03;;
40931;SDS011;36257;46.052;12.540;2023-01-31T11:26:33;57.78;;;38.25;;
40931;SDS011;36257;46.052;12.540;2023-01-31T11:29:06;53.28;;;37.70;;
40931;SDS011;36257;46.052;12.540;2023-01-31T11:31:42;51.17;;;36.60;;
40931;SDS011;36257;46.052;12.540;2023-01-31T11:37:14;57.65;;;38.60;;
40931;SDS011;36257;46.052;12.540;2023-01-31T11:39:41;55.40;;;39.05;;
40931;SDS011;36257;46.052;12.540;2023-01-31T11:42:23;56.00;;;38.00;;
40931;SDS011;36257;46.052;12.540;2023-01-31T11:45:22;51.13;;;35.28;;
40931;SDS011;36257;46.052;12.540;2023-01-31T11:47:44;56.08;;;36.20;;
40931;SDS011;36257;46.052;12.540;2023-01-31T11:50:45;51.22;;;37.55;;
40931;SDS011;36257;46.052;12.540;2023-01-31T11:53:12;61.65;;;39.45;;
40931;SDS011;36257;46.052;12.540;2023-01-31T11:55:44;64.35;;;42.38;;
40931;SDS011;36257;46.052;12.540;2023-01-31T11:58:16;61.45;;;40.70;;
40931;SDS011;36257;46.052;12.540;2023-01-31T12:00:53;63.20;;;41.53;;
40931;SDS011;36257;46.052;12.540;2023-01-31T12:03:19;62.88;;;42.10;;
40931;SDS011;36257;46.052;12.540;2023-01-31T12:05:48;59.67;;;41.47;;
40931;SDS011;36257;46.052;12.540;2023-01-31T12:08:36;63.57;;;41.90;;
40931;SDS011;36257;46.052;12.540;2023-01-31T12:13:51;56.55;;;39.80;;
40931;SDS011;36257;46.052;12.540;2023-01-31T12:16:19;62.97;;;43.13;;
40931;SDS011;36257;46.052;12.540;2023-01-31T12:43:13;68.30;;;46.05;;
40931;SDS011;36257;46.052;12.540;2023-01-31T12:51:53;65.03;;;44.85;;
40931;SDS011;36257;46.052;12.540;2023-01-31T12:59:51;64.45;;;43.80;;
40931;SDS011;36257;46.052;12.540;2023-01-31T13:07:48;64.43;;;43.97;;
40931;SDS011;36257;46.052;12.540;2023-01-31T13:10:29;61.17;;;43.17;;
40931;SDS011;36257;46.052;12.540;2023-01-31T13:12:58;57.53;;;42.05;;
40931;SDS011;36257;46.052;12.540;2023-01-31T13:15:33;58.72;;;40.88;;
40931;SDS011;36257;46.052;12.540;2023-01-31T13:18:21;60.80;;;41.70;;
40931;SDS011;36257;46.052;12.540;2023-01-31T13:21:07;58.90;;;43.13;;
40931;SDS011;36257;46.052;12.540;2023-01-31T13:23:38;60.40;;;43.55;;
40931;SDS011;36257;46.052;12.540;2023-01-31T13:26:08;61.00;;;43.65;;
40931;SDS011;36257;46.052;12.540;2023-01-31T13:28:49;64.40;;;43.42;;
40931;SDS011;36257;46.052;12.540;2023-01-31T13:31:46;64.75;;;45.05;;
40931;SDS011;36257;46.052;12.540;2023-01-31T13:34:28;62.83;;;44.22;;
40931;SDS011;36257;46.052;12.540;2023-01-31T13:37:01;61.92;;;41.85;;
40931;SDS011;36257;46.052;12.540;2023-01-31T13:39:32;60.95;;;41.72;;
40931;SDS011;36257;46.052;12.540;2023-01-31T13:42:09;60.58;;;42.90;;
40931;SDS011;36257;46.052;12.540;2023-01-31T13:44:38;63.60;;;45.03;;
40931;SDS011;36257;46.052;12.540;2023-01-31T13:47:05;59.50;;;42.45;;
40931;SDS011;36257;46.052;12.540;2023-01-31T13:49:57;65.68;;;44.38;;
40931;SDS011;36257;46.052;12.540;2023-01-31T13:52:34;61.47;;;42.88;;
40931;SDS011;36257;46.052;12.540;2023-01-31T13:55:19;62.15;;;43.75;;
40931;SDS011;36257;46.052;12.540;2023-01-31T13:57:55;64.90;;;43.60;;
40931;SDS011;36257;46.052;12.540;2023-01-31T14:03:06;66.45;;;45.58;;
40931;SDS011;36257;46.052;12.540;2023-01-31T14:10:59;66.18;;;46.72;;
40931;SDS011;36257;46.052;12.540;2023-01-31T14:15:59;64.78;;;45.67;;
40931;SDS011;36257;46.052;12.540;2023-01-31T14:18:35;70.50;;;44.05;;
40931;SDS011;36257;46.052;12.540;2023-01-31T14:24:17;65.43;;;44.22;;
40931;SDS011;36257;46.052;12.540;2023-01-31T14:29:14;65.07;;;44.22;;
40931;SDS011;36257;46.052;12.540;2023-01-31T14:31:43;67.18;;;45.60;;
40931;SDS011;36257;46.052;12.540;2023-01-31T14:39:54;66.97;;;45.85;;
40931;SDS011;36257;46.052;12.540;2023-01-31T14:48:36;73.43;;;48.10;;
40931;SDS011;36257;46.052;12.540;2023-01-31T14:51:11;72.60;;;48.08;;
40931;SDS011;36257;46.052;12.540;2023-01-31T14:58:48;74.13;;;46.90;;
40931;SDS011;36257;46.052;12.540;2023-01-31T15:01:16;70.93;;;47.65;;
40931;SDS011;36257;46.052;12.540;2023-01-31T15:03:48;71.22;;;47.60;;
40931;SDS011;36257;46.052;12.540;2023-01-31T15:06:26;74.78;;;48.30;;
40931;SDS011;36257;46.052;12.540;2023-01-31T15:11:44;72.30;;;48.67;;
40931;SDS011;36257;46.052;12.540;2023-01-31T15:16:53;70.90;;;46.97;;
40931;SDS011;36257;46.052;12.540;2023-01-31T15:19:25;68.15;;;47.13;;
40931;SDS011;36257;46.052;12.540;2023-01-31T15:21:57;76.43;;;50.63;;
40931;SDS011;36257;46.052;12.540;2023-01-31T15:24:37;69.95;;;47.17;;
40931;SDS011;36257;46.052;12.540;2023-01-31T15:27:26;71.22;;;47.00;;
40931;SDS011;36257;46.052;12.540;2023-01-31T15:32:36;70.43;;;46.13;;
40931;SDS011;36257;46.052;12.540;2023-01-31T15:35:21;66.72;;;46.15;;
40931;SDS011;36257;46.052;12.540;2023-01-31T15:37:54;76.22;;;50.13;;
40931;SDS011;36257;46.052;12.540;2023-01-31T15:40:26;84.50;;;54.92;;
40931;SDS011;36257;46.052;12.540;2023-01-31T15:42:53;81.72;;;55.70;;
40931;SDS011;36257;46.052;12.540;2023-01-31T15:45:38;80.07;;;50.42;;
40931;SDS011;36257;46.052;12.540;2023-01-31T15:48:10;96.13;;;65.60;;
40931;SDS011;36257;46.052;12.540;2023-01-31T15:50:46;84.43;;;59.08;;
40931;SDS011;36257;46.052;12.540;2023-01-31T15:53:15;80.28;;;55.05;;
40931;SDS011;36257;46.052;12.540;2023-01-31T15:55:41;85.75;;;56.70;;
40931;SDS011;36257;46.052;12.540;2023-01-31T15:58:29;106.75;;;67.40;;
40931;SDS011;36257;46.052;12.540;2023-01-31T16:00:59;98.15;;;66.13;;
40931;SDS011;36257;46.052;12.540;2023-01-31T16:03:33;81.30;;;51.92;;
40931;SDS011;36257;46.052;12.540;2023-01-31T16:06:04;82.35;;;55.13;;
40931;SDS011;36257;46.052;12.540;2023-01-31T16:08:42;83.93;;;54.57;;
40931;SDS011;36257;46.052;12.540;2023-01-31T16:11:08;86.60;;;58.57;;
40931;SDS011;36257;46.052;12.540;2023-01-31T16:13:35;86.80;;;56.77;;
40931;SDS011;36257;46.052;12.540;2023-01-31T16:16:06;86.40;;;51.77;;
40931;SDS011;36257;46.052;12.540;2023-01-31T16:18:34;84.67;;;54.07;;
40931;SDS011;36257;46.052;12.540;2023-01-31T16:23:58;82.07;;;51.67;;
40931;SDS011;36257;46.052;12.540;2023-01-31T16:26:26;105.80;;;61.53;;
40931;SDS011;36257;46.052;12.540;2023-01-31T16:28:57;108.77;;;61.93;;
40931;SDS011;36257;46.052;12.540;2023-01-31T16:31:27;102.53;;;59.80;;
40931;SDS011;36257;46.052;12.540;2023-01-31T16:33:56;85.00;;;54.23;;
40931;SDS011;36257;46.052;12.540;2023-01-31T16:39:28;81.63;;;53.17;;
40931;SDS011;36257;46.052;12.540;2023-01-31T16:41:59;84.40;;;52.60;;
40931;SDS011;36257;46.052;12.540;2023-01-31T16:44:47;80.93;;;51.30;;
40931;SDS011;36257;46.052;12.540;2023-01-31T16:52:42;78.53;;;49.80;;
40931;SDS011;36257;46.052;12.540;2023-01-31T16:55:16;64.68;;;40.47;;
40931;SDS011;36257;46.052;12.540;2023-01-31T16:57:43;77.73;;;48.33;;
40931;SDS011;36257;46.052;12.540;2023-01-31T17:02:52;81.93;;;51.33;;
40931;SDS011;36257;46.052;12.540;2023-01-31T17:05:28;81.90;;;51.33;;
40931;SDS011;36257;46.052;12.540;2023-01-31T17:08:08;82.50;;;50.30;;
40931;SDS011;36257;46.052;12.540;2023-01-31T17:10:43;89.67;;;58.47;;
40931;SDS011;36257;46.052;12.540;2023-01-31T17:13:18;108.73;;;66.00;;
40931;SDS011;36257;46.052;12.540;2023-01-31T17:15:49;136.73;;;83.20;;
40931;SDS011;36257;46.052;12.540;2023-01-31T17:18:15;134.80;;;84.43;;